Ault Field, Washington
Current Conditions -  °F | °C
As of 1:56 PM on Wednesday 28 Jan 2015 (Local Time) from KNUW Reporting Station
Broken Clouds Broken Clouds  
Wind Chill: 11°   Ceiling: 25000
Heat Index: 11°   Visibility: 10mi
Dew Point:   Wind: 5mph
Humidity: 74%   Direction: 310°NW
Pressure: 30.39"   Gusts: NA
Location:  48.3182°N, 122.634°W
Report Text: KNUW 282156Z 31004KT 10SM SCT030 SCT050 BKN250 11/06 A3039 RMK AO2 SLP293 T01060061 VISNO E $
Loading
Personal Weather Stations






























Interactive Weather Map New forecast layout! Learn more

10-Day Weather Forecast

Advertisements
Track Severe Weather on mobile